Time;durP1;ratioP1;P1;durP2;ratioP2;P2;SDS_P1;SDS_P2;PMS_P1;PMS_P2;Temp;Humidity;BMP_temperature;BMP_pressure;BME280_temperature;BME280_humidity;BME280_pressure;Samples;Min_cycle;Max_cycle;Signal;HPM_P1;HPM_P2
2023/04/01 00:01:58;;;;;;;3.03;0.55;;;9.10;99.90;;;;;;5038087;28;25063;-73
2023/04/01 00:04:25;;;;;;;5.53;0.95;;;9.00;99.90;;;;;;5019483;28;25110;-73
2023/04/01 00:06:53;;;;;;;2.22;0.57;;;9.00;99.90;;;;;;5037803;28;25115;-73
2023/04/01 00:09:20;;;;;;;1.02;0.40;;;9.00;99.90;;;;;;5037656;28;25077;-73
2023/04/01 00:11:48;;;;;;;2.17;0.47;;;9.00;99.90;;;;;;5037438;28;25070;-73
2023/04/01 00:14:15;;;;;;;1.58;0.40;;;9.00;99.90;;;;;;5003370;28;25059;-73
2023/04/01 00:16:42;;;;;;;3.85;0.70;;;9.00;99.90;;;;;;5019956;28;25051;-73
2023/04/01 00:19:09;;;;;;;2.28;0.90;;;8.90;99.90;;;;;;5037577;28;25075;-73
2023/04/01 00:21:36;;;;;;;2.67;0.52;;;8.90;99.90;;;;;;5037254;28;25103;-73
2023/04/01 00:24:04;;;;;;;3.38;0.70;;;8.90;99.90;;;;;;5037344;28;25056;-73
2023/04/01 00:26:31;;;;;;;1.13;0.40;;;8.90;99.90;;;;;;5019681;28;25052;-73
2023/04/01 00:28:59;;;;;;;1.30;0.30;;;8.90;99.90;;;;;;5037629;28;25058;-73
2023/04/01 00:31:27;;;;;;;1.48;0.47;;;8.90;99.90;;;;;;5036976;28;25147;-73
2023/04/01 00:33:54;;;;;;;1.92;0.40;;;8.90;99.90;;;;;;5037007;28;25121;-73
2023/04/01 00:36:22;;;;;;;1.02;0.35;;;8.90;99.90;;;;;;5037518;28;25058;-73
2023/04/01 00:38:51;;;;;;;2.38;0.50;;;8.90;99.90;;;;;;5036870;28;25062;-73
2023/04/01 00:41:20;;;;;;;2.13;0.30;;;9.00;99.90;;;;;;5036781;28;25073;-73
2023/04/01 00:43:50;;;;;;;3.53;0.50;;;9.00;99.90;;;;;;5036823;28;25116;-73
2023/04/01 00:46:18;;;;;;;2.88;0.40;;;9.00;99.90;;;;;;5036642;28;25068;-73
2023/04/01 00:48:54;;;;;;;2.85;0.70;;;9.00;99.90;;;;;;5037011;28;25102;-73
2023/04/01 00:51:25;;;;;;;;;;;8.90;99.90;;;;;;5019651;28;25059;-73
2023/04/01 00:53:55;;;;;;;1.77;0.40;;;8.90;99.90;;;;;;5036714;28;24102;-73
2023/04/01 00:56:39;;;;;;;2.35;0.52;;;8.90;99.90;;;;;;5037382;28;25057;-73
2023/04/01 00:59:23;;;;;;;2.33;0.65;;;8.90;99.90;;;;;;5037037;28;25124;-73
2023/04/01 01:01:50;;;;;;;1.63;0.30;;;8.90;99.90;;;;;;5036908;28;25060;-73
2023/04/01 01:04:29;;;;;;;3.28;0.63;;;8.90;99.90;;;;;;5018948;28;25057;-73
2023/04/01 01:07:20;;;;;;;1.92;0.47;;;8.90;99.90;;;;;;5037112;28;25057;-73
2023/04/01 01:10:04;;;;;;;0.98;0.30;;;8.90;99.90;;;;;;5036723;28;25085;-73
2023/04/01 01:12:41;;;;;;;1.38;0.82;;;8.90;99.90;;;;;;5036551;28;25077;-73
2023/04/01 01:15:13;;;;;;;2.92;0.73;;;8.90;99.90;;;;;;5036807;28;25123;-73
2023/04/01 01:18:20;;;;;;;4.80;0.50;;;8.90;99.90;;;;;;5018341;28;25103;-73
2023/04/01 01:21:24;;;;;;;1.10;0.38;;;8.90;99.90;;;;;;5012643;28;25071;-73
2023/04/01 01:24:27;;;;;;;1.58;0.40;;;8.80;99.90;;;;;;5018700;28;25054;-73
2023/04/01 01:26:58;;;;;;;4.65;0.55;;;8.80;99.90;;;;;;5036324;28;25070;-73
2023/04/01 01:29:44;;;;;;;5.13;1.42;;;8.80;99.90;;;;;;5036775;28;25087;-73
2023/04/01 01:32:48;;;;;;;2.05;0.50;;;8.80;99.90;;;;;;5036454;28;25064;-73
2023/04/01 01:35:28;;;;;;;1.55;0.63;;;8.80;99.90;;;;;;5036235;28;25067;-73
2023/04/01 01:38:07;;;;;;;2.40;0.40;;;8.80;99.90;;;;;;5036355;28;25116;-73
2023/04/01 01:40:36;;;;;;;1.58;0.38;;;8.80;99.90;;;;;;5036182;28;25077;-73
2023/04/01 01:43:11;;;;;;;1.95;0.80;;;8.80;99.90;;;;;;5035996;28;25092;-73
2023/04/01 01:45:49;;;;;;;2.20;0.73;;;8.80;99.90;;;;;;5035982;28;25119;-73
2023/04/01 01:48:18;;;;;;;2.22;0.50;;;8.80;99.90;;;;;;5035968;28;25056;-73
2023/04/01 01:50:46;;;;;;;1.15;0.32;;;8.90;99.90;;;;;;5018674;28;25070;-73
2023/04/01 01:53:14;;;;;;;2.15;0.47;;;8.90;99.90;;;;;;5018832;28;25096;-73
2023/04/01 01:55:45;;;;;;;1.23;0.77;;;8.80;99.90;;;;;;5035981;28;25066;-73
2023/04/01 01:58:17;;;;;;;2.40;0.43;;;8.80;99.90;;;;;;5036518;28;25053;-73
2023/04/01 02:00:55;;;;;;;1.30;0.32;;;8.80;99.90;;;;;;5035874;28;25065;-73
2023/04/01 02:03:26;;;;;;;0.90;0.20;;;8.80;99.90;;;;;;5036246;28;25155;-73
2023/04/01 02:05:56;;;;;;;3.90;0.55;;;8.80;99.90;;;;;;5018404;28;25068;-73
2023/04/01 02:08:35;;;;;;;5.53;0.50;;;8.80;99.90;;;;;;5035692;28;25128;-73
2023/04/01 02:11:11;;;;;;;2.08;0.32;;;8.80;99.90;;;;;;5035781;28;25070;-73
2023/04/01 02:13:45;;;;;;;2.80;0.40;;;8.80;99.90;;;;;;5035868;28;25090;-73
2023/04/01 02:16:21;;;;;;;4.65;0.60;;;8.80;99.90;;;;;;5036311;28;25100;-73
2023/04/01 02:18:53;;;;;;;1.70;0.40;;;8.80;99.90;;;;;;5035735;28;25058;-73
2023/04/01 02:21:22;;;;;;;1.08;0.60;;;8.80;99.90;;;;;;5035746;28;25127;-73
2023/04/01 02:23:52;;;;;;;1.00;0.30;;;8.80;99.90;;;;;;5035731;28;25076;-73
2023/04/01 02:26:20;;;;;;;0.98;0.40;;;8.80;99.90;;;;;;5035596;28;25057;-73
2023/04/01 02:28:50;;;;;;;5.25;0.50;;;8.80;99.90;;;;;;5039241;28;25078;-73
2023/04/01 02:31:18;;;;;;;4.97;0.50;;;8.80;99.90;;;;;;5039823;28;25120;-73
2023/04/01 02:33:47;;;;;;;0.73;0.30;;;8.80;99.90;;;;;;5021856;28;25064;-73
2023/04/01 02:36:16;;;;;;;0.43;0.20;;;8.80;99.90;;;;;;5039175;28;25099;-73
2023/04/01 02:38:45;;;;;;;2.15;0.50;;;8.70;99.90;;;;;;5039223;28;25132;-73
2023/04/01 02:41:13;;;;;;;1.27;0.30;;;8.70;99.90;;;;;;5039297;28;25085;-73
2023/04/01 02:43:40;;;;;;;2.22;0.50;;;8.70;99.90;;;;;;5021478;28;25073;-73
2023/04/01 02:46:08;;;;;;;3.55;0.43;;;8.70;99.90;;;;;;5039187;28;25080;-73
2023/04/01 02:48:35;;;;;;;6.75;0.93;;;8.60;99.90;;;;;;5039530;28;25089;-73
2023/04/01 02:51:03;;;;;;;3.70;0.47;;;8.60;99.90;;;;;;5039721;28;25069;-73
2023/04/01 02:53:31;;;;;;;1.35;0.38;;;8.60;99.90;;;;;;5038820;28;25139;-72
2023/04/01 02:55:58;;;;;;;3.25;0.57;;;8.60;99.90;;;;;;5039427;28;25057;-73
2023/04/01 02:58:25;;;;;;;1.65;0.43;;;8.60;99.90;;;;;;5039348;28;25068;-73
2023/04/01 03:00:53;;;;;;;1.25;0.30;;;8.60;99.90;;;;;;5021383;28;25076;-73
2023/04/01 03:03:20;;;;;;;1.80;0.57;;;8.60;99.90;;;;;;5039253;28;25070;-73
2023/04/01 03:05:48;;;;;;;6.70;0.60;;;8.60;99.90;;;;;;5021108;28;25058;-73
2023/04/01 03:08:15;;;;;;;3.15;0.70;;;8.60;99.90;;;;;;5038565;28;24892;-73
2023/04/01 03:10:42;;;;;;;1.35;0.40;;;8.60;99.90;;;;;;5038875;28;25090;-73
2023/04/01 03:13:09;;;;;;;2.22;0.40;;;8.60;99.90;;;;;;5020985;28;25116;-73
2023/04/01 03:15:37;;;;;;;1.90;0.50;;;8.60;99.90;;;;;;5039367;28;25114;-73
2023/04/01 03:18:04;;;;;;;1.30;0.40;;;8.60;99.90;;;;;;5020884;28;25062;-73
2023/04/01 03:20:31;;;;;;;4.05;0.63;;;8.60;99.90;;;;;;5039023;28;25065;-73
2023/04/01 03:22:58;;;;;;;2.40;0.60;;;8.60;99.90;;;;;;5038314;28;25051;-73
2023/04/01 03:25:26;;;;;;;4.20;0.68;;;8.60;99.90;;;;;;5020963;28;25111;-73
2023/04/01 03:27:54;;;;;;;3.17;0.80;;;8.60;99.90;;;;;;5020814;28;25112;-73
2023/04/01 03:30:21;;;;;;;1.75;0.52;;;8.60;99.90;;;;;;5038763;28;25072;-73
2023/04/01 03:32:48;;;;;;;3.38;0.90;;;8.60;99.90;;;;;;5038518;28;25115;-73
2023/04/01 03:35:16;;;;;;;4.38;0.75;;;8.60;99.90;;;;;;5038826;28;25058;-73
2023/04/01 03:37:43;;;;;;;1.67;0.40;;;8.60;99.90;;;;;;5020356;28;25065;-73
2023/04/01 03:40:11;;;;;;;1.50;0.40;;;8.60;99.90;;;;;;5037569;28;25067;-73
2023/04/01 03:42:38;;;;;;;1.98;0.47;;;8.60;99.90;;;;;;5037986;28;25132;-73
2023/04/01 03:45:06;;;;;;;2.67;0.40;;;8.60;99.90;;;;;;5038050;28;25060;-73
2023/04/01 03:47:34;;;;;;;1.08;0.22;;;8.60;99.90;;;;;;5020377;28;25065;-73
2023/04/01 03:50:01;;;;;;;2.80;0.50;;;8.60;99.90;;;;;;5021017;28;25087;-73
2023/04/01 03:52:29;;;;;;;3.92;0.38;;;8.60;99.90;;;;;;5038253;28;25110;-73
2023/04/01 03:54:56;;;;;;;2.70;0.60;;;8.60;99.90;;;;;;5038362;28;25121;-73
2023/04/01 03:57:24;;;;;;;1.35;0.45;;;8.60;99.90;;;;;;5020349;28;25108;-73
2023/04/01 03:59:51;;;;;;;7.43;0.70;;;8.60;99.90;;;;;;5037992;28;25139;-73
2023/04/01 04:02:19;;;;;;;2.10;0.50;;;8.60;99.90;;;;;;5020097;28;25156;-73
2023/04/01 04:04:46;;;;;;;0.98;0.40;;;8.60;99.90;;;;;;5037545;28;25088;-73
2023/04/01 04:07:14;;;;;;;2.78;0.40;;;8.60;99.90;;;;;;5037558;28;25069;-73
2023/04/01 04:09:41;;;;;;;1.50;0.40;;;8.60;99.90;;;;;;5037483;28;25089;-73
2023/04/01 04:12:09;;;;;;;2.13;0.40;;;8.60;99.90;;;;;;5038013;28;25070;-73
2023/04/01 04:14:36;;;;;;;2.30;0.60;;;8.60;99.90;;;;;;5037904;28;25076;-73
2023/04/01 04:17:04;;;;;;;4.72;1.25;;;8.70;99.90;;;;;;5019974;28;25133;-73
2023/04/01 04:19:34;;;;;;;2.10;0.95;;;8.60;99.90;;;;;;5037793;28;25099;-73
2023/04/01 04:22:01;;;;;;;2.75;0.30;;;8.60;99.90;;;;;;5037605;28;25050;-73
2023/04/01 04:24:29;;;;;;;1.25;0.52;;;8.60;99.90;;;;;;5037723;28;25072;-73
2023/04/01 04:26:56;;;;;;;2.60;0.90;;;8.60;99.90;;;;;;5037390;28;25118;-73
2023/04/01 04:29:23;;;;;;;1.25;0.40;;;8.70;99.90;;;;;;5037117;28;25068;-73
2023/04/01 04:31:50;;;;;;;2.42;0.70;;;8.70;99.90;;;;;;5019580;28;25145;-72
2023/04/01 04:34:18;;;;;;;1.90;0.47;;;8.70;99.90;;;;;;5037069;28;25059;-71
2023/04/01 04:36:45;;;;;;;2.20;0.60;;;8.70;99.90;;;;;;5037189;28;25118;-72
2023/04/01 04:39:12;;;;;;;1.80;0.50;;;8.60;99.90;;;;;;5019326;28;25061;-73
2023/04/01 04:41:40;;;;;;;1.45;0.47;;;8.60;99.90;;;;;;5019687;28;25099;-73
2023/04/01 04:44:08;;;;;;;1.25;0.40;;;8.60;99.90;;;;;;5036926;28;25133;-73
2023/04/01 04:46:36;;;;;;;1.15;0.40;;;8.60;99.90;;;;;;5019204;28;25064;-73
2023/04/01 04:49:04;;;;;;;5.85;1.00;;;8.60;99.90;;;;;;5037364;28;25078;-73
2023/04/01 04:51:35;;;;;;;2.10;0.73;;;8.60;99.90;;;;;;5036580;28;24719;-73
2023/04/01 04:54:07;;;;;;;1.48;0.40;;;8.60;99.90;;;;;;5036640;28;25070;-73
2023/04/01 04:56:35;;;;;;;2.13;0.63;;;8.60;99.90;;;;;;5019346;28;25086;-73
2023/04/01 04:59:02;;;;;;;2.72;0.40;;;8.60;99.90;;;;;;5037141;28;25069;-73
2023/04/01 05:01:29;;;;;;;1.00;0.20;;;8.60;99.90;;;;;;5036538;28;25050;-73
2023/04/01 05:03:57;;;;;;;3.63;0.57;;;8.60;99.90;;;;;;5018970;28;25130;-73
2023/04/01 05:06:25;;;;;;;0.90;0.50;;;8.60;99.90;;;;;;5018905;28;25148;-73
2023/04/01 05:08:52;;;;;;;2.75;0.47;;;8.60;99.90;;;;;;5036952;28;25070;-73
2023/04/01 05:11:20;;;;;;;0.52;0.30;;;8.60;99.90;;;;;;5036416;28;25057;-73
2023/04/01 05:13:48;;;;;;;2.47;0.47;;;8.60;99.90;;;;;;5036637;28;25064;-73
2023/04/01 05:16:17;;;;;;;4.85;1.13;;;8.60;99.90;;;;;;5019211;28;25059;-73
2023/04/01 05:18:45;;;;;;;2.65;0.38;;;8.60;99.90;;;;;;5036289;28;25064;-74
2023/04/01 05:21:14;;;;;;;0.93;0.43;;;8.70;99.90;;;;;;5018785;28;25056;-74
2023/04/01 05:23:43;;;;;;;2.70;0.80;;;8.60;99.90;;;;;;5018608;28;25110;-74
2023/04/01 05:26:13;;;;;;;2.30;0.38;;;8.60;99.90;;;;;;5036921;28;25068;-73
2023/04/01 05:28:40;;;;;;;1.73;0.82;;;8.70;99.90;;;;;;5018670;28;25088;-73
2023/04/01 05:31:08;;;;;;;1.05;0.40;;;8.70;99.90;;;;;;5018508;28;25079;-73
2023/04/01 05:33:36;;;;;;;4.95;0.77;;;8.70;99.90;;;;;;5036161;28;25098;-71
2023/04/01 05:36:14;;;;;;;5.00;0.80;;;8.70;99.90;;;;;;5036279;28;25056;-72
2023/04/01 05:38:42;;;;;;;3.78;0.50;;;8.70;99.90;;;;;;5036267;28;25096;-75
2023/04/01 05:41:10;;;;;;;1.83;0.60;;;8.70;99.90;;;;;;5036315;28;25069;-79
2023/04/01 05:43:38;;;;;;;1.88;0.80;;;8.70;99.90;;;;;;5018536;28;25130;-75
2023/04/01 05:46:06;;;;;;;1.92;0.30;;;8.70;99.90;;;;;;5028406;28;25075;-75
2023/04/01 05:48:37;;;;;;;1.75;1.20;;;8.70;99.90;;;;;;4998798;28;25137;-75
2023/04/01 05:51:05;;;;;;;1.15;0.50;;;8.70;99.90;;;;;;4998876;28;25122;-76
2023/04/01 05:53:32;;;;;;;1.67;0.43;;;8.80;99.90;;;;;;4998786;28;25087;-75
2023/04/01 05:56:04;;;;;;;3.33;0.65;;;8.80;99.90;;;;;;5016346;28;25132;-75
2023/04/01 05:58:31;;;;;;;1.10;0.45;;;8.70;99.90;;;;;;4997425;28;25064;-76
2023/04/01 06:01:11;;;;;;;1.48;0.40;;;8.80;99.90;;;;;;4998729;28;25102;-75
2023/04/01 06:03:39;;;;;;;0.55;0.30;;;8.80;99.90;;;;;;5019238;28;25074;-75
2023/04/01 06:06:15;;;;;;;1.90;0.40;;;8.80;99.90;;;;;;5020036;28;25073;-75
2023/04/01 06:08:43;;;;;;;3.45;0.40;;;8.90;99.90;;;;;;5023338;28;25067;-78
2023/04/01 06:11:20;;;;;;;4.32;0.60;;;8.90;99.90;;;;;;5002575;28;25124;-80
2023/04/01 06:14:18;;;;;;;1.25;0.43;;;8.90;99.90;;;;;;5020099;28;25136;-80
2023/04/01 06:17:05;;;;;;;2.80;0.60;;;9.00;99.90;;;;;;5020179;28;25076;-84
2023/04/01 06:19:51;;;;;;;1.30;0.40;;;9.00;99.90;;;;;;5002286;28;25129;-81
2023/04/01 06:22:37;;;;;;;5.57;0.40;;;9.10;99.90;;;;;;5002474;28;25138;-80
2023/04/01 06:25:27;;;;;;;0.80;0.22;;;9.20;99.90;;;;;;5002211;28;25072;-79
2023/04/01 06:28:31;;;;;;;2.95;0.40;;;9.20;99.90;;;;;;5002157;28;25054;-79
2023/04/01 06:31:26;;;;;;;1.98;0.30;;;9.30;99.90;;;;;;5002112;28;25052;-80
2023/04/01 06:34:31;;;;;;;0.73;0.20;;;9.40;99.90;;;;;;5019507;28;25091;-80
2023/04/01 06:37:12;;;;;;;0.82;0.40;;;9.60;99.90;;;;;;5019932;28;25145;-79
2023/04/01 06:40:07;;;;;;;1.52;0.50;;;9.70;99.90;;;;;;5019612;28;25066;-78
2023/04/01 06:43:23;;;;;;;3.47;0.57;;;9.80;99.90;;;;;;5019633;28;25107;-78
2023/04/01 06:46:10;;;;;;;0.22;0.10;;;9.90;99.90;;;;;;4995123;28;25066;-73
2023/04/01 06:49:06;;;;;;;3.22;0.32;;;10.00;99.90;;;;;;5039496;28;25107;-73
2023/04/01 06:51:51;;;;;;;0.60;0.10;;;10.00;99.90;;;;;;5021410;28;25060;-72
2023/04/01 06:54:36;;;;;;;1.13;0.35;;;10.00;99.90;;;;;;5038879;28;25063;-72
2023/04/01 06:57:23;;;;;;;0.70;0.45;;;9.90;99.90;;;;;;5039543;28;25059;-72
2023/04/01 06:59:51;;;;;;;1.75;0.20;;;9.90;99.90;;;;;;5039390;28;25086;-73
2023/04/01 07:02:40;;;;;;;1.73;0.30;;;9.80;99.90;;;;;;5021154;28;25078;-72
2023/04/01 07:05:09;;;;;;;3.30;0.40;;;9.70;99.90;;;;;;5038734;28;25053;-72
2023/04/01 07:07:46;;;;;;;0.93;0.55;;;9.70;99.90;;;;;;5038803;28;25057;-72
2023/04/01 07:10:42;;;;;;;0.82;0.35;;;9.60;99.90;;;;;;5038905;28;25072;-72
2023/04/01 07:13:45;;;;;;;1.48;0.30;;;9.60;99.90;;;;;;5038961;28;25145;-72
2023/04/01 07:16:20;;;;;;;1.17;0.40;;;9.60;99.90;;;;;;4997327;28;25057;-72
2023/04/01 07:19:05;;;;;;;3.13;0.40;;;9.60;99.90;;;;;;5039000;28;25055;-72
2023/04/01 07:21:46;;;;;;;0.95;0.20;;;9.50;99.90;;;;;;5038956;28;25089;-73
2023/04/01 07:24:28;;;;;;;0.77;0.30;;;9.60;99.90;;;;;;5038300;28;25105;-72
2023/04/01 07:26:57;;;;;;;2.28;0.43;;;9.60;99.90;;;;;;5038633;28;25070;-73
2023/04/01 07:29:26;;;;;;;0.90;0.20;;;9.70;99.90;;;;;;5038289;28;25103;-72
2023/04/01 07:32:18;;;;;;;4.32;0.35;;;9.70;99.90;;;;;;5038822;28;25113;-72
2023/04/01 07:35:17;;;;;;;0.90;0.22;;;9.80;99.90;;;;;;5038127;28;25084;-73
2023/04/01 07:38:09;;;;;;;0.82;0.20;;;9.90;99.90;;;;;;5020710;28;25136;-71
2023/04/01 07:40:55;;;;;;;1.35;0.30;;;9.90;99.90;;;;;;5038375;28;25114;-72
2023/04/01 07:43:43;;;;;;;0.50;0.22;;;10.00;99.90;;;;;;5020455;28;25101;-72
2023/04/01 07:46:40;;;;;;;1.00;0.40;;;10.00;99.90;;;;;;5037849;28;25058;-72
2023/04/01 07:49:17;;;;;;;0.50;0.20;;;10.10;99.90;;;;;;5038377;28;25083;-72
2023/04/01 07:51:59;;;;;;;1.05;0.45;;;10.20;99.90;;;;;;5038333;28;25065;-72
2023/04/01 07:54:58;;;;;;;0.85;0.20;;;10.20;99.90;;;;;;5037691;28;25135;-71
2023/04/01 07:57:58;;;;;;;3.97;0.60;;;10.30;99.90;;;;;;5020097;28;25123;-72
2023/04/01 08:00:50;;;;;;;0.47;0.28;;;10.40;99.90;;;;;;5038177;28;24794;-72
2023/04/01 08:03:33;;;;;;;2.40;0.30;;;10.60;99.90;;;;;;5037781;28;25105;-71
2023/04/01 08:06:22;;;;;;;0.50;0.22;;;10.70;99.90;;;;;;5038347;28;25100;-72
2023/04/01 08:09:19;;;;;;;1.00;0.55;;;10.80;99.90;;;;;;5037622;28;25065;-72
2023/04/01 08:12:03;;;;;;;1.13;0.55;;;10.90;99.90;;;;;;5037648;28;25153;-72
2023/04/01 08:14:48;;;;;;;3.08;0.40;;;11.00;99.90;;;;;;5037413;28;25149;-72
2023/04/01 08:17:20;;;;;;;2.17;0.28;;;11.00;99.90;;;;;;5038027;28;25071;-72
2023/04/01 08:20:25;;;;;;;2.28;0.40;;;11.10;99.90;;;;;;5037236;28;25096;-72
2023/04/01 08:23:00;;;;;;;1.20;0.30;;;11.20;99.90;;;;;;5019762;28;25053;-73
2023/04/01 08:25:30;;;;;;;0.90;0.22;;;11.20;99.90;;;;;;5037437;28;25076;-72
2023/04/01 08:28:07;;;;;;;1.80;0.25;;;11.30;99.90;;;;;;5037164;28;25112;-72
2023/04/01 08:30:47;;;;;;;2.63;0.43;;;11.30;99.90;;;;;;5037616;28;25078;-72
2023/04/01 08:33:30;;;;;;;2.28;0.10;;;11.30;99.90;;;;;;5019526;28;25068;-72
2023/04/01 08:36:23;;;;;;;1.33;0.47;;;11.30;99.90;;;;;;5019659;28;25061;-72
2023/04/01 08:39:15;;;;;;;2.15;0.30;;;11.30;99.90;;;;;;5037184;28;25120;-72
2023/04/01 08:42:09;;;;;;;0.20;0.17;;;11.20;99.90;;;;;;5037243;28;25059;-72
2023/04/01 08:45:06;;;;;;;0.77;0.20;;;11.20;99.90;;;;;;5037046;28;25057;-73
2023/04/01 08:47:51;;;;;;;1.65;0.30;;;11.20;99.90;;;;;;5019017;28;25066;-71
2023/04/01 08:50:46;;;;;;;0.65;0.30;;;11.10;99.90;;;;;;5019177;28;25112;-71
2023/04/01 08:53:23;;;;;;;3.75;0.25;;;11.00;99.90;;;;;;5036753;28;25068;-71
2023/04/01 08:56:15;;;;;;;8.20;3.00;;;11.00;99.90;;;;;;5037072;28;25130;-71
2023/04/01 08:59:03;;;;;;;4.82;2.10;;;11.00;99.90;;;;;;5019104;28;25395;-71
2023/04/01 09:01:58;;;;;;;2.75;1.42;;;11.00;99.90;;;;;;5037148;28;25115;-70
2023/04/01 09:05:10;;;;;;;1.02;0.45;;;11.00;99.90;;;;;;5019442;28;25074;-71
2023/04/01 09:07:44;;;;;;;1.55;0.52;;;11.00;99.90;;;;;;5036635;28;25189;-70
2023/04/01 09:10:41;;;;;;;0.95;0.43;;;11.10;99.90;;;;;;5037071;28;25070;-71
2023/04/01 09:13:32;;;;;;;4.63;1.17;;;11.20;99.90;;;;;;4966898;28;25067;-71
2023/04/01 09:16:19;;;;;;;1.15;0.57;;;11.30;99.90;;;;;;5018845;28;25080;-71
2023/04/01 09:19:16;;;;;;;1.40;0.40;;;11.40;99.90;;;;;;5036292;28;25120;-72
2023/04/01 09:22:25;;;;;;;2.65;0.40;;;11.50;99.90;;;;;;5018984;28;25071;-72
2023/04/01 09:24:55;;;;;;;2.63;1.52;;;11.70;99.90;;;;;;4998725;28;25117;-73
2023/04/01 09:27:34;;;;;;;2.40;0.70;;;11.70;99.90;;;;;;5036372;28;25090;-72
2023/04/01 09:30:21;;;;;;;2.97;0.90;;;11.80;99.90;;;;;;5036803;28;25050;-72
2023/04/01 09:33:10;;;;;;;3.13;0.60;;;12.00;99.90;;;;;;5036029;28;25060;-84
2023/04/01 09:35:48;;;;;;;2.65;0.80;;;12.00;99.90;;;;;;5036214;28;25084;-72
2023/04/01 09:38:51;;;;;;;2.05;0.40;;;12.10;99.90;;;;;;5039199;28;25091;-72
2023/04/01 09:41:36;;;;;;;1.88;0.98;;;12.10;99.90;;;;;;5040259;28;25151;-71
2023/04/01 09:44:15;;;;;;;1.40;0.70;;;12.20;99.90;;;;;;5040286;28;25099;-71
2023/04/01 09:47:16;;;;;;;1.23;0.50;;;12.20;99.90;;;;;;5027787;28;25060;-72
2023/04/01 09:49:58;;;;;;;0.68;0.30;;;12.20;99.90;;;;;;5020356;28;25069;-71
2023/04/01 09:52:35;;;;;;;0.38;0.20;;;12.20;99.90;;;;;;5002945;28;25067;-75
2023/04/01 09:55:38;;;;;;;0.40;0.40;;;12.20;99.90;;;;;;5020552;28;25157;-75
2023/04/01 09:58:32;;;;;;;1.92;0.50;;;12.10;99.90;;;;;;5020145;28;25073;-74
2023/04/01 10:01:17;;;;;;;5.32;1.70;;;12.10;99.90;;;;;;5020532;28;25069;-74
2023/04/01 10:04:23;;;;;;;2.17;0.80;;;12.00;99.90;;;;;;5002608;28;25078;-70
2023/04/01 10:07:12;;;;;;;11.63;3.17;;;11.90;99.90;;;;;;4924669;29;25096;-71
2023/04/01 10:10:00;;;;;;;3.95;1.90;;;11.80;99.90;;;;;;5019131;28;25142;-71
2023/04/01 10:12:52;;;;;;;2.95;0.90;;;11.70;99.90;;;;;;5020581;28;25056;-71
2023/04/01 10:15:39;;;;;;;0.82;0.32;;;11.70;99.90;;;;;;5020355;28;25072;-72
2023/04/01 10:18:19;;;;;;;3.13;0.50;;;11.80;99.90;;;;;;5019717;28;25142;-71
2023/04/01 10:21:14;;;;;;;1.27;0.38;;;11.80;99.90;;;;;;5020500;28;25104;-71
2023/04/01 10:24:20;;;;;;;1.00;0.43;;;11.90;99.90;;;;;;5019775;28;25098;-71
2023/04/01 10:27:24;;;;;;;1.70;0.65;;;12.10;99.90;;;;;;5019826;28;25065;-72
2023/04/01 10:30:16;;;;;;;2.22;0.45;;;12.20;99.90;;;;;;5019885;28;25099;-72
2023/04/01 10:33:18;;;;;;;3.80;0.65;;;12.30;99.90;;;;;;5002314;28;25106;-71
2023/04/01 10:36:17;;;;;;;2.50;0.38;;;12.50;99.90;;;;;;5019494;28;25070;-73
2023/04/01 10:39:00;;;;;;;1.20;0.40;;;12.60;99.90;;;;;;5019557;28;25055;-75
2023/04/01 10:42:01;;;;;;;1.67;0.50;;;12.80;99.90;;;;;;5019761;28;25055;-73
2023/04/01 10:45:02;;;;;;;1.42;0.50;;;12.90;99.90;;;;;;5019575;28;25086;-73
2023/04/01 10:48:05;;;;;;;3.97;2.00;;;13.00;99.90;;;;;;5037885;28;25071;-73
2023/04/01 10:50:45;;;;;;;6.82;2.78;;;13.00;99.90;;;;;;5021437;28;25058;-73
2023/04/01 10:53:40;;;;;;;4.97;0.80;;;13.10;99.90;;;;;;5039123;28;25086;-75
2023/04/01 10:56:33;;;;;;;4.45;2.22;;;13.10;99.90;;;;;;5039327;28;25048;-73
2023/04/01 10:59:29;;;;;;;6.10;3.42;;;13.00;99.90;;;;;;5039181;28;25082;-73
2023/04/01 11:02:24;;;;;;;1.88;0.90;;;12.90;99.90;;;;;;5038851;28;25135;-73
2023/04/01 11:05:18;;;;;;;2.13;0.80;;;12.80;99.90;;;;;;5039008;28;25095;-72
2023/04/01 11:07:49;;;;;;;2.28;0.63;;;12.70;99.90;;;;;;5038538;28;25110;-73
2023/04/01 11:10:16;;;;;;;4.97;2.63;;;12.60;99.90;;;;;;5039116;28;25081;-73
2023/04/01 11:13:22;;;;;;;2.03;0.60;;;12.50;99.90;;;;;;5021229;28;25084;-73
2023/04/01 11:16:32;;;;;;;0.52;0.40;;;12.40;99.90;;;;;;5021499;28;25052;-71
2023/04/01 11:19:21;;;;;;;4.70;1.98;;;12.20;99.90;;;;;;5020909;28;25058;-71
2023/04/01 11:22:17;;;;;;;1.60;1.10;;;11.90;99.90;;;;;;5020828;28;25064;-71
2023/04/01 11:25:00;;;;;;;2.40;0.60;;;11.80;99.90;;;;;;5020841;28;24994;-71
2023/04/01 11:27:51;;;;;;;2.85;1.13;;;11.80;99.90;;;;;;5038736;28;25094;-71
2023/04/01 11:30:34;;;;;;;2.92;0.68;;;11.90;99.90;;;;;;4997548;28;25057;-72
2023/04/01 11:33:27;;;;;;;1.88;0.43;;;12.00;99.90;;;;;;5038171;28;25066;-73
2023/04/01 11:36:17;;;;;;;0.68;0.28;;;12.30;99.90;;;;;;5038583;28;25067;-69
2023/04/01 11:39:14;;;;;;;0.85;0.43;;;12.60;99.90;;;;;;5020435;28;25074;-71
2023/04/01 11:41:58;;;;;;;2.08;0.22;;;12.90;99.90;;;;;;5038020;28;25080;-71
2023/04/01 11:44:32;;;;;;;0.30;0.20;;;13.10;99.90;;;;;;5020376;28;25081;-71
2023/04/01 11:47:22;;;;;;;0.40;0.20;;;13.20;99.90;;;;;;5025180;28;25132;-72
2023/04/01 11:49:49;;;;;;;1.33;1.02;;;13.30;99.90;;;;;;5018625;28;25095;-72
2023/04/01 11:52:41;;;;;;;0.20;0.20;;;13.40;99.90;;;;;;5018236;28;25057;-74
2023/04/01 11:55:27;;;;;;;0.43;0.35;;;13.50;99.90;;;;;;5018288;28;25121;-73
2023/04/01 11:58:24;;;;;;;0.47;0.30;;;13.60;99.90;;;;;;5018199;28;25106;-73
2023/04/01 12:01:05;;;;;;;0.57;0.30;;;13.80;99.90;;;;;;4999728;28;25153;-73
2023/04/01 12:03:45;;;;;;;1.02;0.30;;;13.90;99.90;;;;;;5018104;28;25060;-73
2023/04/01 12:06:23;;;;;;;3.10;1.00;;;14.00;99.90;;;;;;5018343;28;25092;-73
2023/04/01 12:09:26;;;;;;;2.53;0.50;;;14.10;99.90;;;;;;5018218;28;25089;-73
2023/04/01 12:12:40;;;;;;;0.63;0.40;;;14.20;99.90;;;;;;5018163;28;25097;-73
2023/04/01 12:15:36;;;;;;;0.50;0.35;;;14.40;99.90;;;;;;4999515;28;25072;-73
2023/04/01 12:18:23;;;;;;;1.10;0.30;;;14.40;99.90;;;;;;4999291;28;25061;-73
2023/04/01 12:21:12;;;;;;;0.80;0.40;;;14.40;99.90;;;;;;5016300;28;25121;-73
2023/04/01 12:23:59;;;;;;;0.32;0.25;;;14.40;99.90;;;;;;5017641;28;25068;-73
2023/04/01 12:26:45;;;;;;;1.17;0.38;;;14.30;99.90;;;;;;4998670;28;25054;-73
2023/04/01 12:29:33;;;;;;;1.23;0.30;;;14.20;99.90;;;;;;5017721;28;25110;-73
2023/04/01 12:32:28;;;;;;;1.15;0.40;;;14.20;99.90;;;;;;5000687;28;25090;-73
2023/04/01 12:35:07;;;;;;;6.05;0.60;;;14.00;99.90;;;;;;5017553;28;25044;-73
2023/04/01 12:37:47;;;;;;;1.90;0.82;;;14.00;99.90;;;;;;5016402;28;25127;-73
2023/04/01 12:40:41;;;;;;;1.92;0.60;;;13.80;99.90;;;;;;5017683;28;25062;-73
2023/04/01 12:43:46;;;;;;;0.75;0.22;;;13.50;99.90;;;;;;4996762;28;25053;-73
2023/04/01 12:46:55;;;;;;;0.77;0.20;;;13.30;99.90;;;;;;5005514;28;25056;-73
2023/04/01 12:49:55;;;;;;;0.52;0.20;;;13.00;99.90;;;;;;5036700;28;25083;-73
2023/04/01 12:52:52;;;;;;;1.00;0.50;;;12.60;99.90;;;;;;5033055;28;25076;-73
2023/04/01 12:55:27;;;;;;;1.17;0.40;;;12.30;99.90;;;;;;5037088;28;25063;-73
2023/04/01 12:57:55;;;;;;;;;;;12.10;99.90;;;;;;5037244;28;25075;-73
2023/04/01 13:00:46;;;;;;;0.47;0.30;;;11.90;99.90;;;;;;5037391;28;25121;-73
2023/04/01 13:03:14;;;;;;;0.60;0.30;;;11.80;99.90;;;;;;5019304;28;25100;-73
2023/04/01 13:06:21;;;;;;;1.10;0.50;;;11.80;99.90;;;;;;5018994;28;25059;-73
2023/04/01 13:09:08;;;;;;;15.77;5.22;;;11.70;99.90;;;;;;5036438;28;25072;-74
2023/04/01 13:12:03;;;;;;;2.80;1.20;;;11.70;99.90;;;;;;5018798;28;25060;-72
2023/04/01 13:15:07;;;;;;;2.72;0.80;;;11.80;99.90;;;;;;5036169;28;25073;-74
2023/04/01 13:17:47;;;;;;;1.23;0.50;;;11.80;99.90;;;;;;5036409;28;25118;-72
2023/04/01 13:20:34;;;;;;;2.53;0.85;;;11.90;99.90;;;;;;5037040;28;25069;-72
2023/04/01 13:23:26;;;;;;;1.20;0.60;;;11.90;99.90;;;;;;5036400;28;25127;-72
2023/04/01 13:26:17;;;;;;;2.30;0.80;;;11.80;99.90;;;;;;5035109;28;25108;-72
2023/04/01 13:29:12;;;;;;;0.70;0.47;;;11.60;99.90;;;;;;5011020;28;25077;-72
2023/04/01 13:32:06;;;;;;;3.35;0.80;;;11.50;99.90;;;;;;5036455;28;25075;-72
2023/04/01 13:35:12;;;;;;;1.17;0.60;;;11.40;99.90;;;;;;5036794;28;25116;-71
2023/04/01 13:38:00;;;;;;;1.73;0.70;;;11.40;99.90;;;;;;5002946;28;25109;-72
2023/04/01 13:40:52;;;;;;;2.47;1.27;;;11.40;99.90;;;;;;5036472;28;25059;-72
2023/04/01 13:43:35;;;;;;;1.38;0.60;;;11.30;99.90;;;;;;5018629;28;25106;-72
2023/04/01 13:46:03;;;;;;;1.30;0.57;;;11.40;99.90;;;;;;5031680;28;25146;-73
2023/04/01 13:49:07;;;;;;;2.70;1.38;;;11.40;99.90;;;;;;4998888;28;25078;-73
2023/04/01 13:52:01;;;;;;;1.70;0.60;;;11.40;99.90;;;;;;4999136;28;25102;-72
2023/04/01 13:54:56;;;;;;;1.13;0.57;;;11.40;99.90;;;;;;4998744;28;25076;-72
2023/04/01 13:57:41;;;;;;;4.68;1.02;;;11.50;99.90;;;;;;4998837;28;25051;-72
2023/04/01 14:00:44;;;;;;;6.32;1.40;;;11.50;99.90;;;;;;4998843;28;25075;-72
2023/04/01 14:03:29;;;;;;;5.75;1.02;;;11.50;99.90;;;;;;4998864;28;25114;-72